Time;durP1;ratioP1;P1;durP2;ratioP2;P2;SDS_P1;SDS_P2;PMS_P1;PMS_P2;Temp;Humidity;BMP_temperature;BMP_pressure;BME280_temperature;BME280_humidity;BME280_pressure;Samples;Min_cycle;Max_cycle;Signal;HPM_P1;HPM_P2
2023/11/20 00:00:30;;;;;;;;;;;;;;;;;;5048678;28;4509;-60
2023/11/20 00:02:56;;;;;;;;;;;;;;;;;;5045673;28;1333;-58
2023/11/20 00:05:21;;;;;;;;;;;;;;;;;;5046730;28;5011;-57
2023/11/20 00:07:47;;;;;;;;;;;;;;;;;;5044573;28;5008;-57
2023/11/20 00:10:13;;;;;;;;;;;;;;;;;;5043716;28;4999;-57
2023/11/20 00:12:38;;;;;;;;;;;;;;;;;;5045380;28;4530;-58
2023/11/20 00:15:04;;;;;;;;;;;;;;;;;;5050572;28;1117;-58
2023/11/20 00:17:29;;;;;;;;;;;;;;;;;;5044969;28;4465;-57
2023/11/20 00:19:55;;;;;;;;;;;;;;;;;;5043760;28;4504;-59
2023/11/20 00:22:20;;;;;;;;;;;;;;;;;;5044532;28;5113;-57
2023/11/20 00:24:45;;;;;;;;;;;;;;;;;;5044301;28;4636;-58
2023/11/20 00:27:11;;;;;;;;;;;;;;;;;;5048445;28;4453;-57
2023/11/20 00:29:37;;;;;;;;;;;;;;;;;;5046495;28;4809;-56
2023/11/20 00:32:03;;;;;;;;;;;;;;;;;;5026451;28;4897;-56
2023/11/20 00:34:28;;;;;;;;;;;;;;;;;;5044411;28;4810;-58
2023/11/20 00:36:53;;;;;;;;;;;;;;;;;;5047164;28;4638;-58
2023/11/20 00:39:19;;;;;;;;;;;;;;;;;;5026937;28;5098;-60
2023/11/20 00:41:44;;;;;;;;;;;;;;;;;;5045743;28;1119;-58
2023/11/20 00:44:11;;;;;;;;;;;;;;;;;;5042506;28;4725;-61
2023/11/20 00:46:37;;;;;;;;;;;;;;;;;;5026539;28;4859;-58
2023/11/20 00:49:03;;;;;;;;;;;;;;;;;;5046047;28;5028;-58
2023/11/20 00:51:29;;;;;;;;;;;;;;;;;;5025620;28;5068;-58
2023/11/20 00:53:54;;;;;;;;;;;;;;;;;;5046690;28;1268;-55
2023/11/20 00:56:20;;;;;;;;;;;;;;;;;;5050904;28;5225;-58
2023/11/20 00:58:45;;;;;;;;;;;;;;;;;;5045551;28;5017;-58
2023/11/20 01:01:10;;;;;;;;;;;;;;;;;;5043985;28;4895;-58
2023/11/20 01:03:37;;;;;;;;;;;;;;;;;;5044671;28;4953;-56
2023/11/20 01:06:04;;;;;;;;;;;;;;;;;;5028318;28;1499;-57
2023/11/20 01:08:29;;;;;;;;;;;;;;;;;;5043294;28;5077;-58
2023/11/20 01:10:54;;;;;;;;;;;;;;;;;;5045790;28;4694;-58
2023/11/20 01:13:19;;;;;;;;;;;;;;;;;;5048110;28;5194;-56
2023/11/20 01:15:45;;;;;;;;;;;;;;;;;;5048688;28;4909;-57
2023/11/20 01:18:10;;;;;;;;;;;;;;;;;;5048894;28;5135;-64
2023/11/20 01:20:35;;;;;;;;;;;;;;;;;;5048035;28;1906;-59
2023/11/20 01:23:01;;;;;;;;;;;;;;;;;;5044036;28;5012;-56
2023/11/20 01:25:26;;;;;;;;;;;;;;;;;;5046310;28;4573;-58
2023/11/20 01:27:51;;;;;;;;;;;;;;;;;;5051090;28;4455;-58
2023/11/20 01:30:17;;;;;;;;;;;;;;;;;;5049036;28;5048;-57
2023/11/20 01:32:42;;;;;;;;;;;;;;;;;;5047902;28;991;-56
2023/11/20 01:35:08;;;;;;;;;;;;;;;;;;5048802;28;5382;-56
2023/11/20 01:37:34;;;;;;;;;;;;;;;;;;5047299;28;4464;-57
2023/11/20 01:39:59;;;;;;;;;;;;;;;;;;5047579;28;5154;-56
2023/11/20 01:42:24;;;;;;;;;;;;;;;;;;5048474;28;5056;-56
2023/11/20 01:44:50;;;;;;;;;;;;;;;;;;5047694;28;1036;-57
2023/11/20 01:47:15;;;;;;;;;;;;;;;;;;5048745;28;4943;-56
2023/11/20 01:49:41;;;;;;;;;;;;;;;;;;5047636;28;4557;-57
2023/11/20 01:52:06;;;;;;;;;;;;;;;;;;5047941;28;5038;-57
2023/11/20 01:54:31;;;;;;;;;;;;;;;;;;5030568;28;5007;-56
2023/11/20 01:56:57;;;;;;;;;;;;;;;;;;5049640;28;1363;-57
2023/11/20 01:59:22;;;;;;;;;;;;;;;;;;5045626;28;5090;-57
2023/11/20 02:01:48;;;;;;;;;;;;;;;;;;5029666;28;4660;-57
2023/11/20 02:04:14;;;;;;;;;;;;;;;;;;5047448;28;4657;-57
2023/11/20 02:06:39;;;;;;;;;;;;;;;;;;5014707;28;4679;-61
2023/11/20 02:09:04;;;;;;;;;;;;;;;;;;5049459;28;1353;-56
2023/11/20 02:11:29;;;;;;;;;;;;;;;;;;5046465;28;4787;-56
2023/11/20 02:13:55;;;;;;;;;;;;;;;;;;5047065;28;5051;-57
2023/11/20 02:16:20;;;;;;;;;;;;;;;;;;5051090;28;5077;-58
2023/11/20 02:18:45;;;;;;;;;;;;;;;;;;5049904;28;4991;-56
2023/11/20 02:21:10;;;;;;;;;;;;;;;;;;5046514;28;5548;-59
2023/11/20 02:23:36;;;;;;;;;;;;;;;;;;5042765;28;1189;-56
2023/11/20 02:26:12;;;;;;;;;;;;;;;;;;5046245;28;5034;-57
2023/11/20 02:28:48;;;;;;;;;;;;;;;;;;5028790;28;5027;-57
2023/11/20 02:31:20;;;;;;;;;;;;;;;;;;5030650;28;5072;-56
2023/11/20 02:33:45;;;;;;;;;;;;;;;;;;5046680;28;4612;-56
2023/11/20 02:36:12;;;;;;;;;;;;;;;;;;5048410;28;5138;-60
2023/11/20 02:38:40;;;;;;;;;;;;;;;;;;5047369;28;1993;-56
2023/11/20 02:41:05;;;;;;;;;;;;;;;;;;5048195;28;5019;-57
2023/11/20 02:43:33;;;;;;;;;;;;;;;;;;5049854;28;5120;-56
2023/11/20 02:46:00;;;;;;;;;;;;;;;;;;5047379;28;5031;-57
2023/11/20 02:48:26;;;;;;;;;;;;;;;;;;5029052;28;4792;-56
2023/11/20 02:50:51;;;;;;;;;;;;;;;;;;5046447;28;1036;-56
2023/11/20 02:53:17;;;;;;;;;;;;;;;;;;5045900;28;4978;-58
2023/11/20 02:55:42;;;;;;;;;;;;;;;;;;5046216;28;4985;-58
2023/11/20 02:58:07;;;;;;;;;;;;;;;;;;5052396;28;4475;-57
2023/11/20 03:00:41;;;;;;;;;;;;;;;;;;5031859;28;5359;-56
2023/11/20 03:03:07;;;;;;;;;;;;;;;;;;5048145;28;4743;-57
2023/11/20 03:05:35;;;;;;;;;;;;;;;;;;5046308;28;1120;-56
2023/11/20 03:08:17;;;;;;;;;;;;;;;;;;5051714;28;4970;-57
2023/11/20 03:10:43;;;;;;;;;;;;;;;;;;5050270;28;4944;-56
2023/11/20 03:13:10;;;;;;;;;;;;;;;;;;5069194;28;5013;-57
2023/11/20 03:15:37;;;;;;;;;;;;;;;;;;5055693;28;5289;-57
2023/11/20 03:18:03;;;;;;;;;;;;;;;;;;5056524;28;1092;-57
2023/11/20 03:20:29;;;;;;;;;;;;;;;;;;5046190;28;4433;-58
2023/11/20 03:22:54;;;;;;;;;;;;;;;;;;5029149;28;4859;-57
2023/11/20 03:25:20;;;;;;;;;;;;;;;;;;5044411;28;4477;-58
2023/11/20 03:27:46;;;;;;;;;;;;;;;;;;5046791;28;5242;-57
2023/11/20 03:30:12;;;;;;;;;;;;;;;;;;5044993;28;5070;-57
2023/11/20 03:32:37;;;;;;;;;;;;;;;;;;5046573;28;1228;-58
2023/11/20 03:35:05;;;;;;;;;;;;;;;;;;5046171;28;4909;-57
2023/11/20 03:37:30;;;;;;;;;;;;;;;;;;5046426;28;4966;-57
2023/11/20 03:39:56;;;;;;;;;;;;;;;;;;5044995;28;4914;-57
2023/11/20 03:42:22;;;;;;;;;;;;;;;;;;5045386;28;4991;-56
2023/11/20 03:44:47;;;;;;;;;;;;;;;;;;5046641;28;1061;-57
2023/11/20 03:47:13;;;;;;;;;;;;;;;;;;5050081;28;4620;-57
2023/11/20 03:49:38;;;;;;;;;;;;;;;;;;5047410;28;4710;-56
2023/11/20 03:52:04;;;;;;;;;;;;;;;;;;5044600;28;5036;-58
2023/11/20 03:54:29;;;;;;;;;;;;;;;;;;5045561;28;5007;-57
2023/11/20 03:56:55;;;;;;;;;;;;;;;;;;5046296;28;1117;-59
2023/11/20 03:59:20;;;;;;;;;;;;;;;;;;5044331;28;5148;-58
2023/11/20 04:01:45;;;;;;;;;;;;;;;;;;5044434;28;4983;-58
2023/11/20 04:04:20;;;;;;;;;;;;;;;;;;5047779;28;5505;-57
2023/11/20 04:06:53;;;;;;;;;;;;;;;;;;5045443;28;5196;-56
2023/11/20 04:09:25;;;;;;;;;;;;;;;;;;5047395;28;5184;-57
2023/11/20 04:11:51;;;;;;;;;;;;;;;;;;5069442;28;951;-56
2023/11/20 04:14:17;;;;;;;;;;;;;;;;;;5060466;28;4983;-56
2023/11/20 04:16:42;;;;;;;;;;;;;;;;;;5044445;28;4859;-57
2023/11/20 04:19:09;;;;;;;;;;;;;;;;;;5048439;28;5228;-56
2023/11/20 04:21:34;;;;;;;;;;;;;;;;;;5022521;28;4876;-60
2023/11/20 04:24:05;;;;;;;;;;;;;;;;;;5046723;28;1152;-56
2023/11/20 04:26:31;;;;;;;;;;;;;;;;;;5048086;28;5143;-57
2023/11/20 04:28:56;;;;;;;;;;;;;;;;;;5046289;28;4453;-57
2023/11/20 04:31:22;;;;;;;;;;;;;;;;;;5049594;28;4932;-59
2023/11/20 04:33:47;;;;;;;;;;;;;;;;;;5044588;28;5049;-57
2023/11/20 04:36:13;;;;;;;;;;;;;;;;;;5044555;28;5011;-59
2023/11/20 04:38:45;;;;;;;;;;;;;;;;;;5056018;28;1914;-56
2023/11/20 04:41:10;;;;;;;;;;;;;;;;;;5044894;28;5052;-56
2023/11/20 04:43:36;;;;;;;;;;;;;;;;;;5046141;28;4837;-57
2023/11/20 04:46:01;;;;;;;;;;;;;;;;;;5046911;28;4958;-57
2023/11/20 04:48:26;;;;;;;;;;;;;;;;;;5048908;28;5010;-57
2023/11/20 04:50:52;;;;;;;;;;;;;;;;;;5045176;28;1128;-59
2023/11/20 04:53:18;;;;;;;;;;;;;;;;;;5044964;28;4845;-57
2023/11/20 04:55:43;;;;;;;;;;;;;;;;;;5044013;28;5105;-57
2023/11/20 04:58:08;;;;;;;;;;;;;;;;;;5044991;28;4508;-57
2023/11/20 05:00:34;;;;;;;;;;;;;;;;;;5044149;28;5121;-58
2023/11/20 05:02:59;;;;;;;;;;;;;;;;;;5044640;28;1033;-59
2023/11/20 05:05:25;;;;;;;;;;;;;;;;;;5044573;28;4631;-59
2023/11/20 05:07:52;;;;;;;;;;;;;;;;;;5045197;28;5008;-57
2023/11/20 05:10:17;;;;;;;;;;;;;;;;;;5044348;28;5059;-59
2023/11/20 05:12:42;;;;;;;;;;;;;;;;;;5043854;28;5087;-58
2023/11/20 05:15:08;;;;;;;;;;;;;;;;;;5044131;28;5055;-62
2023/11/20 05:17:39;;;;;;;;;;;;;;;;;;5050449;28;1157;-58
2023/11/20 05:20:06;;;;;;;;;;;;;;;;;;5042668;28;5068;-58
2023/11/20 05:22:31;;;;;;;;;;;;;;;;;;5021201;28;4722;-58
2023/11/20 05:24:56;;;;;;;;;;;;;;;;;;5043879;28;4996;-58
2023/11/20 05:27:22;;;;;;;;;;;;;;;;;;5043725;28;4457;-58
2023/11/20 05:29:47;;;;;;;;;;;;;;;;;;5044731;28;4493;-57
2023/11/20 05:32:12;;;;;;;;;;;;;;;;;;5044632;28;5048;-57
2023/11/20 05:34:48;;;;;;;;;;;;;;;;;;5044145;28;4465;-58
2023/11/20 05:37:14;;;;;;;;;;;;;;;;;;5043572;28;4470;-58
2023/11/20 05:39:39;;;;;;;;;;;;;;;;;;5044435;28;4658;-57
2023/11/20 05:42:04;;;;;;;;;;;;;;;;;;5043667;28;1620;-57
2023/11/20 05:44:30;;;;;;;;;;;;;;;;;;5043554;28;4771;-57
2023/11/20 05:46:56;;;;;;;;;;;;;;;;;;5045345;28;4646;-58
2023/11/20 05:49:21;;;;;;;;;;;;;;;;;;5025814;28;4461;-57
2023/11/20 05:52:01;;;;;;;;;;;;;;;;;;5044028;28;5002;-57
2023/11/20 05:54:27;;;;;;;;;;;;;;;;;;5043931;28;5179;-57
2023/11/20 05:56:52;;;;;;;;;;;;;;;;;;5045205;28;1263;-58
2023/11/20 05:59:17;;;;;;;;;;;;;;;;;;5046533;28;5028;-57
2023/11/20 06:01:42;;;;;;;;;;;;;;;;;;5048363;28;5001;-58
2023/11/20 06:04:08;;;;;;;;;;;;;;;;;;5046494;28;5008;-59
2023/11/20 06:06:37;;;;;;;;;;;;;;;;;;5047715;28;4477;-58
2023/11/20 06:09:05;;;;;;;;;;;;;;;;;;5047924;28;1066;-58
2023/11/20 06:11:31;;;;;;;;;;;;;;;;;;5047359;28;4628;-58
2023/11/20 06:13:57;;;;;;;;;;;;;;;;;;5053133;28;4782;-57
2023/11/20 06:16:23;;;;;;;;;;;;;;;;;;5038484;28;5107;-57
2023/11/20 06:18:48;;;;;;;;;;;;;;;;;;5055978;28;4974;-58
2023/11/20 06:21:14;;;;;;;;;;;;;;;;;;5056435;28;5034;-58
2023/11/20 06:23:39;;;;;;;;;;;;;;;;;;5067970;28;3470;-57
2023/11/20 06:29:07;;;;;;;;;;;;;;;;;;5056569;28;5006;-58
2023/11/20 06:31:32;;;;;;;;;;;;;;;;;;5055969;28;4592;-58
2023/11/20 06:33:58;;;;;;;;;;;;;;;;;;5055959;28;5074;-57
2023/11/20 06:36:23;;;;;;;;;;;;;;;;;;5054022;28;5048;-58
2023/11/20 06:44:54;;;;;;;;;;;;;;;;;;5056972;28;4600;-58
2023/11/20 06:50:22;;;;;;;;;;;;;;;;;;5054485;28;5162;-56
2023/11/20 06:53:09;;;;;;;;;;;;;;;;;;5037733;28;5163;-55
2023/11/20 06:58:46;;;;;;;;;;;;;;;;;;5055907;28;5030;-57
2023/11/20 07:01:14;;;;;;;;;;;;;;;;;;5040475;28;5098;-57
2023/11/20 07:03:42;;;;;;;;;;;;;;;;;;5059667;28;4572;-57
2023/11/20 07:06:12;;;;;;;;;;;;;;;;;;5047528;28;5072;-56
2023/11/20 07:08:47;;;;;;;;;;;;;;;;;;5028481;28;1384;-56
2023/11/20 07:11:18;;;;;;;;;;;;;;;;;;5050012;28;4930;-57
2023/11/20 07:13:44;;;;;;;;;;;;;;;;;;5069882;28;4471;-57
2023/11/20 07:16:12;;;;;;;;;;;;;;;;;;5066442;28;5207;-57
2023/11/20 07:18:37;;;;;;;;;;;;;;;;;;5051371;28;4601;-57
2023/11/20 07:21:02;;;;;;;;;;;;;;;;;;5028841;28;1150;-57
2023/11/20 07:23:28;;;;;;;;;;;;;;;;;;5045856;28;5018;-57
2023/11/20 07:25:53;;;;;;;;;;;;;;;;;;5046516;28;4453;-57
2023/11/20 07:28:18;;;;;;;;;;;;;;;;;;5047120;28;4873;-57
2023/11/20 07:30:44;;;;;;;;;;;;;;;;;;5044669;28;5002;-56
2023/11/20 07:33:09;;;;;;;;;;;;;;;;;;5046826;28;4722;-57
2023/11/20 07:35:34;;;;;;;;;;;;;;;;;;5046182;28;1192;-57
2023/11/20 07:37:59;;;;;;;;;;;;;;;;;;5044888;28;4983;-57
2023/11/20 07:40:25;;;;;;;;;;;;;;;;;;5044591;28;5153;-57
2023/11/20 07:42:50;;;;;;;;;;;;;;;;;;5045303;28;4944;-57
2023/11/20 07:45:16;;;;;;;;;;;;;;;;;;5027224;28;5776;-57
2023/11/20 07:47:42;;;;;;;;;;;;;;;;;;5047181;28;1541;-57
2023/11/20 07:50:10;;;;;;;;;;;;;;;;;;5046162;28;4531;-57
2023/11/20 07:52:36;;;;;;;;;;;;;;;;;;5026621;28;4494;-57
2023/11/20 07:55:02;;;;;;;;;;;;;;;;;;5045009;28;4626;-57
2023/11/20 07:57:28;;;;;;;;;;;;;;;;;;5044277;28;5046;-57
2023/11/20 07:59:53;;;;;;;;;;;;;;;;;;5045859;28;2014;-57
2023/11/20 08:02:19;;;;;;;;;;;;;;;;;;5043285;28;4552;-57
2023/11/20 08:04:44;;;;;;;;;;;;;;;;;;5031250;28;4624;-57
2023/11/20 08:07:11;;;;;;;;;;;;;;;;;;5044732;28;5135;-57
2023/11/20 08:09:37;;;;;;;;;;;;;;;;;;5028422;28;5062;-57
2023/11/20 08:12:04;;;;;;;;;;;;;;;;;;5045058;28;994;-57
2023/11/20 08:14:29;;;;;;;;;;;;;;;;;;5045187;28;5046;-57
2023/11/20 08:16:56;;;;;;;;;;;;;;;;;;5044228;28;5018;-57
2023/11/20 08:19:22;;;;;;;;;;;;;;;;;;5043536;28;5058;-57
2023/11/20 08:21:48;;;;;;;;;;;;;;;;;;5021816;28;5046;-57
2023/11/20 08:24:13;;;;;;;;;;;;;;;;;;5044718;28;5163;-57
2023/11/20 08:26:38;;;;;;;;;;;;;;;;;;5045356;28;1088;-57
2023/11/20 08:29:04;;;;;;;;;;;;;;;;;;5027272;28;5138;-57
2023/11/20 08:31:38;;;;;;;;;;;;;;;;;;5045093;28;4665;-57
2023/11/20 08:34:04;;;;;;;;;;;;;;;;;;5044890;28;4728;-57
2023/11/20 08:36:29;;;;;;;;;;;;;;;;;;5046946;28;5111;-57
2023/11/20 08:38:55;;;;;;;;;;;;;;;;;;5029316;28;1914;-57
2023/11/20 08:41:22;;;;;;;;;;;;;;;;;;5048596;28;5074;-57
2023/11/20 08:43:48;;;;;;;;;;;;;;;;;;5048140;28;4585;-57
2023/11/20 08:46:13;;;;;;;;;;;;;;;;;;5045753;28;5027;-57
2023/11/20 08:48:38;;;;;;;;;;;;;;;;;;5048096;28;4516;-57
2023/11/20 08:51:07;;;;;;;;;;;;;;;;;;5044063;28;1279;-57
2023/11/20 08:53:32;;;;;;;;;;;;;;;;;;5044316;28;4623;-57
2023/11/20 08:55:57;;;;;;;;;;;;;;;;;;5043731;28;5004;-57
2023/11/20 08:58:23;;;;;;;;;;;;;;;;;;5045691;28;4994;-57
2023/11/20 09:00:48;;;;;;;;;;;;;;;;;;5043652;28;5025;-57
2023/11/20 09:03:13;;;;;;;;;;;;;;;;;;5042429;28;4639;-57
2023/11/20 09:05:39;;;;;;;;;;;;;;;;;;5044369;28;971;-57
2023/11/20 09:08:04;;;;;;;;;;;;;;;;;;5044761;28;5045;-57
2023/11/20 09:10:31;;;;;;;;;;;;;;;;;;5043856;28;5055;-57
2023/11/20 09:12:56;;;;;;;;;;;;;;;;;;5043954;28;4465;-57
2023/11/20 09:15:22;;;;;;;;;;;;;;;;;;5042826;28;4685;-57
2023/11/20 09:17:47;;;;;;;;;;;;;;;;;;5025420;28;1648;-57
2023/11/20 09:20:18;;;;;;;;;;;;;;;;;;5046514;28;4887;-57
2023/11/20 09:22:44;;;;;;;;;;;;;;;;;;5049704;28;5059;-57
2023/11/20 09:25:09;;;;;;;;;;;;;;;;;;5042964;28;4883;-57
2023/11/20 09:27:34;;;;;;;;;;;;;;;;;;5044720;28;4498;-57
2023/11/20 09:30:00;;;;;;;;;;;;;;;;;;5045546;28;5118;-57
2023/11/20 09:32:28;;;;;;;;;;;;;;;;;;5052175;28;4964;-57
2023/11/20 09:34:54;;;;;;;;;;;;;;;;;;5068011;28;4861;-57
2023/11/20 09:37:19;;;;;;;;;;;;;;;;;;5060693;28;4684;-57
2023/11/20 09:39:46;;;;;;;;;;;;;;;;;;5053311;28;4996;-57
2023/11/20 09:42:14;;;;;;;;;;;;;;;;;;5049812;28;5052;-57
2023/11/20 09:44:40;;;;;;;;;;;;;;;;;;5029779;28;1029;-57
2023/11/20 09:47:07;;;;;;;;;;;;;;;;;;5050482;28;5044;-57
2023/11/20 09:49:32;;;;;;;;;;;;;;;;;;5061074;28;5159;-57
2023/11/20 09:51:59;;;;;;;;;;;;;;;;;;5050618;28;4982;-57
2023/11/20 09:54:24;;;;;;;;;;;;;;;;;;5048531;28;5403;-57
2023/11/20 09:56:50;;;;;;;;;;;;;;;;;;5046630;28;1484;-57
2023/11/20 09:59:16;;;;;;;;;;;;;;;;;;5012028;28;5122;-57
2023/11/20 10:01:41;;;;;;;;;;;;;;;;;;5013105;28;5097;-57
2023/11/20 10:04:07;;;;;;;;;;;;;;;;;;5033540;28;4590;-57
2023/11/20 10:06:33;;;;;;;;;;;;;;;;;;5047215;28;4930;-57
2023/11/20 10:08:58;;;;;;;;;;;;;;;;;;5029706;28;1339;-57
2023/11/20 10:11:24;;;;;;;;;;;;;;;;;;5028659;28;5030;-57
2023/11/20 10:13:49;;;;;;;;;;;;;;;;;;5028408;28;5182;-57
2023/11/20 10:16:14;;;;;;;;;;;;;;;;;;5045881;28;5068;-57
2023/11/20 10:18:40;;;;;;;;;;;;;;;;;;5048501;28;4554;-58
2023/11/20 10:21:06;;;;;;;;;;;;;;;;;;5046328;28;4469;-57
2023/11/20 10:23:31;;;;;;;;;;;;;;;;;;5042220;28;1279;-56
2023/11/20 10:25:58;;;;;;;;;;;;;;;;;;5045586;28;5088;-57
2023/11/20 10:28:25;;;;;;;;;;;;;;;;;;5046188;28;5061;-57
2023/11/20 10:30:50;;;;;;;;;;;;;;;;;;5047602;28;4692;-57
2023/11/20 10:33:23;;;;;;;;;;;;;;;;;;5027827;28;4495;-57
2023/11/20 10:35:50;;;;;;;;;;;;;;;;;;5047478;28;1106;-57
2023/11/20 10:38:17;;;;;;;;;;;;;;;;;;5046425;28;5058;-57
2023/11/20 10:40:48;;;;;;;;;;;;;;;;;;5045462;28;4682;-56
2023/11/20 10:43:14;;;;;;;;;;;;;;;;;;5030783;28;4518;-56
2023/11/20 10:45:39;;;;;;;;;;;;;;;;;;5045112;28;4792;-56
2023/11/20 10:48:07;;;;;;;;;;;;;;;;;;5033223;28;1054;-56
2023/11/20 10:50:33;;;;;;;;;;;;;;;;;;5047283;28;5096;-56
2023/11/20 10:53:11;;;;;;;;;;;;;;;;;;5030446;28;5219;-56
2023/11/20 10:55:39;;;;;;;;;;;;;;;;;;5046297;28;4627;-57
2023/11/20 10:58:06;;;;;;;;;;;;;;;;;;5046879;28;5077;-56
2023/11/20 11:00:31;;;;;;;;;;;;;;;;;;5027074;28;5108;-56
2023/11/20 11:02:57;;;;;;;;;;;;;;;;;;5012448;28;1500;-57
2023/11/20 11:05:22;;;;;;;;;;;;;;;;;;5031943;28;4984;-57
2023/11/20 11:07:47;;;;;;;;;;;;;;;;;;5028584;28;5114;-57
2023/11/20 11:10:14;;;;;;;;;;;;;;;;;;5046636;28;5077;-56
2023/11/20 11:12:43;;;;;;;;;;;;;;;;;;5027422;28;4575;-57
2023/11/20 11:15:12;;;;;;;;;;;;;;;;;;5028012;28;5273;-57
2023/11/20 11:17:44;;;;;;;;;;;;;;;;;;5045790;28;1176;-58
2023/11/20 11:20:11;;;;;;;;;;;;;;;;;;5026932;28;5034;-57
2023/11/20 11:22:36;;;;;;;;;;;;;;;;;;5044602;28;5072;-57
2023/11/20 11:25:02;;;;;;;;;;;;;;;;;;5027507;28;4521;-57
2023/11/20 11:27:31;;;;;;;;;;;;;;;;;;5045593;28;4547;-57
2023/11/20 11:29:58;;;;;;;;;;;;;;;;;;5047821;28;4633;-57
2023/11/20 11:32:46;;;;;;;;;;;;;;;;;;5027661;28;4524;-57
2023/11/20 11:35:13;;;;;;;;;;;;;;;;;;5027268;28;5179;-57
2023/11/20 11:37:41;;;;;;;;;;;;;;;;;;5031963;28;5275;-57
2023/11/20 11:40:25;;;;;;;;;;;;;;;;;;5028755;28;5143;-57
2023/11/20 11:42:59;;;;;;;;;;;;;;;;;;5026856;28;4577;-57
2023/11/20 11:45:27;;;;;;;;;;;;;;;;;;5027383;28;5080;-56
2023/11/20 11:47:52;;;;;;;;;;;;;;;;;;5045614;28;2305;-57
2023/11/20 11:50:17;;;;;;;;;;;;;;;;;;5027690;28;4516;-57
2023/11/20 11:52:44;;;;;;;;;;;;;;;;;;5028636;28;5079;-57
2023/11/20 11:55:12;;;;;;;;;;;;;;;;;;5024584;28;5206;-57
2023/11/20 11:57:42;;;;;;;;;;;;;;;;;;5044740;28;5265;-56
2023/11/20 12:00:11;;;;;;;;;;;;;;;;;;5046084;28;5030;-56
2023/11/20 12:02:55;;;;;;;;;;;;;;;;;;5045141;28;1155;-57
2023/11/20 12:05:20;;;;;;;;;;;;;;;;;;5049173;28;4988;-57
2023/11/20 12:07:58;;;;;;;;;;;;;;;;;;5044248;28;5061;-56
2023/11/20 12:10:39;;;;;;;;;;;;;;;;;;5051667;28;4853;-57
2023/11/20 12:13:06;;;;;;;;;;;;;;;;;;5045208;28;4477;-57
2023/11/20 12:15:37;;;;;;;;;;;;;;;;;;5043841;28;4913;-56
2023/11/20 12:18:06;;;;;;;;;;;;;;;;;;5046106;28;1004;-56
2023/11/20 12:20:36;;;;;;;;;;;;;;;;;;5028415;28;5069;-56
2023/11/20 12:23:08;;;;;;;;;;;;;;;;;;5048677;28;4984;-56
2023/11/20 12:25:39;;;;;;;;;;;;;;;;;;5044770;28;5111;-56
2023/11/20 12:28:10;;;;;;;;;;;;;;;;;;5027504;28;5246;-56
2023/11/20 12:30:35;;;;;;;;;;;;;;;;;;5047815;28;4925;-56
2023/11/20 12:33:02;;;;;;;;;;;;;;;;;;5044879;28;1322;-56
2023/11/20 12:35:28;;;;;;;;;;;;;;;;;;5043820;28;5096;-57
2023/11/20 12:37:54;;;;;;;;;;;;;;;;;;5045549;28;4953;-57
2023/11/20 12:40:26;;;;;;;;;;;;;;;;;;5012643;28;4714;-57
2023/11/20 12:42:51;;;;;;;;;;;;;;;;;;5029776;28;5117;-57
2023/11/20 12:45:17;;;;;;;;;;;;;;;;;;5043403;28;5118;-57
2023/11/20 12:47:43;;;;;;;;;;;;;;;;;;5045932;28;1397;-56
2023/11/20 12:50:13;;;;;;;;;;;;;;;;;;5043379;28;5294;-56
2023/11/20 12:52:40;;;;;;;;;;;;;;;;;;5027034;28;4514;-57
2023/11/20 12:55:07;;;;;;;;;;;;;;;;;;5045120;28;4853;-57
2023/11/20 12:57:32;;;;;;;;;;;;;;;;;;5026625;28;5036;-57
2023/11/20 12:59:59;;;;;;;;;;;;;;;;;;5044509;28;1973;-57
2023/11/20 13:02:27;;;;;;;;;;;;;;;;;;5043649;28;4485;-57
2023/11/20 13:04:52;;;;;;;;;;;;;;;;;;5043837;28;4625;-57
2023/11/20 13:07:21;;;;;;;;;;;;;;;;;;5045460;28;4504;-56
2023/11/20 13:09:46;;;;;;;;;;;;;;;;;;5049273;28;5052;-57
2023/11/20 13:12:12;;;;;;;;;;;;;;;;;;5047253;28;4510;-57
2023/11/20 13:14:55;;;;;;;;;;;;;;;;;;5056037;28;1197;-58
2023/11/20 13:17:21;;;;;;;;;;;;;;;;;;5029871;28;4463;-57
2023/11/20 13:19:47;;;;;;;;;;;;;;;;;;5029681;28;4493;-57
2023/11/20 13:22:12;;;;;;;;;;;;;;;;;;5051268;28;4859;-57
2023/11/20 13:24:49;;;;;;;;;;;;;;;;;;5030366;28;5178;-57
2023/11/20 13:27:15;;;;;;;;;;;;;;;;;;5047805;28;5003;-57
2023/11/20 13:29:40;;;;;;;;;;;;;;;;;;5030303;28;4949;-57
2023/11/20 13:32:27;;;;;;;;;;;;;;;;;;5048819;28;4503;-57
2023/11/20 13:34:52;;;;;;;;;;;;;;;;;;5048007;28;5311;-57
2023/11/20 13:37:17;;;;;;;;;;;;;;;;;;5029635;28;5006;-56
2023/11/20 13:39:42;;;;;;;;;;;;;;;;;;5048650;28;5129;-57
2023/11/20 13:42:08;;;;;;;;;;;;;;;;;;5051263;28;5019;-57
2023/11/20 13:44:34;;;;;;;;;;;;;;;;;;5048215;28;1260;-57
2023/11/20 13:46:59;;;;;;;;;;;;;;;;;;5030855;28;5122;-57
2023/11/20 13:49:25;;;;;;;;;;;;;;;;;;5047762;28;5101;-58
2023/11/20 13:51:51;;;;;;;;;;;;;;;;;;5046907;28;4464;-58
2023/11/20 13:54:16;;;;;;;;;;;;;;;;;;5045918;28;4520;-57
2023/11/20 13:56:41;;;;;;;;;;;;;;;;;;5047503;28;1428;-57
2023/11/20 13:59:08;;;;;;;;;;;;;;;;;;5047763;28;5039;-57
2023/11/20 14:01:33;;;;;;;;;;;;;;;;;;5047310;28;4453;-57
2023/11/20 14:03:59;;;;;;;;;;;;;;;;;;5030219;28;5051;-56
2023/11/20 14:06:24;;;;;;;;;;;;;;;;;;5047327;28;4996;-56
2023/11/20 14:08:49;;;;;;;;;;;;;;;;;;5048380;28;1421;-56
2023/11/20 14:11:15;;;;;;;;;;;;;;;;;;5048523;28;5037;-57
2023/11/20 14:13:44;;;;;;;;;;;;;;;;;;5052055;28;5114;-57
2023/11/20 14:16:11;;;;;;;;;;;;;;;;;;5030180;28;5188;-57
2023/11/20 14:18:37;;;;;;;;;;;;;;;;;;5030118;28;5037;-57
2023/11/20 14:21:05;;;;;;;;;;;;;;;;;;5048542;28;1967;-55
2023/11/20 14:23:30;;;;;;;;;;;;;;;;;;5024905;28;4802;-55
2023/11/20 14:25:56;;;;;;;;;;;;;;;;;;5046616;28;5123;-56
2023/11/20 14:28:21;;;;;;;;;;;;;;;;;;5047923;28;4974;-56
2023/11/20 14:30:46;;;;;;;;;;;;;;;;;;5050121;28;5209;-56
2023/11/20 14:33:12;;;;;;;;;;;;;;;;;;5046884;28;5092;-56
2023/11/20 14:35:37;;;;;;;;;;;;;;;;;;5050789;28;2452;-56
2023/11/20 14:38:03;;;;;;;;;;;;;;;;;;5049769;28;5966;-56
2023/11/20 14:40:28;;;;;;;;;;;;;;;;;;5028437;28;4510;-57
2023/11/20 14:42:53;;;;;;;;;;;;;;;;;;5045525;28;4566;-57
2023/11/20 14:45:38;;;;;;;;;;;;;;;;;;5045765;28;5117;-57
2023/11/20 14:48:03;;;;;;;;;;;;;;;;;;5028091;28;3000;-57
2023/11/20 14:50:29;;;;;;;;;;;;;;;;;;5016582;28;4467;-57
2023/11/20 14:52:54;;;;;;;;;;;;;;;;;;5053028;28;4998;-57
2023/11/20 14:58:23;;;;;;;;;;;;;;;;;;5054309;28;4638;-57
2023/11/20 15:06:55;;;;;;;;;;;;;;;;;;5055063;28;4469;-57
2023/11/20 15:25:49;;;;;;;;;;;;;;;;;;5048248;28;4524;-56
2023/11/20 15:28:14;;;;;;;;;;;;;;;;;;5024547;28;4826;-56
2023/11/20 15:30:40;;;;;;;;;;;;;;;;;;5039508;28;4796;-58
2023/11/20 15:33:05;;;;;;;;;;;;;;;;;;5061704;28;5219;-54
2023/11/20 15:35:31;;;;;;;;;;;;;;;;;;5045495;28;2966;-56
2023/11/20 15:37:57;;;;;;;;;;;;;;;;;;5052435;28;4443;-56
2023/11/20 15:40:22;;;;;;;;;;;;;;;;;;5056322;28;5293;-57
2023/11/20 15:42:47;;;;;;;;;;;;;;;;;;5051962;28;5321;-57
2023/11/20 15:45:13;;;;;;;;;;;;;;;;;;5046024;28;4680;-57
2023/11/20 15:47:38;;;;;;;;;;;;;;;;;;5028426;28;3064;-56
2023/11/20 15:50:04;;;;;;;;;;;;;;;;;;5044894;28;5161;-57
2023/11/20 15:52:29;;;;;;;;;;;;;;;;;;5054728;28;5185;-55
2023/11/20 15:54:55;;;;;;;;;;;;;;;;;;5052600;28;5143;-57
2023/11/20 15:57:21;;;;;;;;;;;;;;;;;;5058364;28;5082;-58
2023/11/20 15:59:47;;;;;;;;;;;;;;;;;;5045650;28;3027;-57
2023/11/20 16:02:12;;;;;;;;;;;;;;;;;;5036363;28;4533;-57
2023/11/20 16:04:37;;;;;;;;;;;;;;;;;;5058237;28;5042;-57
2023/11/20 16:07:03;;;;;;;;;;;;;;;;;;5057046;28;5275;-57
2023/11/20 16:09:28;;;;;;;;;;;;;;;;;;5048546;28;4536;-58
2023/11/20 16:11:54;;;;;;;;;;;;;;;;;;5057734;28;1127;-58
2023/11/20 16:14:23;;;;;;;;;;;;;;;;;;5051326;28;4980;-58
2023/11/20 16:16:50;;;;;;;;;;;;;;;;;;5058495;28;5111;-58
2023/11/20 16:19:15;;;;;;;;;;;;;;;;;;5060370;28;4750;-63
2023/11/20 16:21:40;;;;;;;;;;;;;;;;;;5056976;28;4750;-65
2023/11/20 16:24:06;;;;;;;;;;;;;;;;;;5065353;28;5204;-63
2023/11/20 16:26:31;;;;;;;;;;;;;;;;;;5048125;28;3154;-65
2023/11/20 16:28:57;;;;;;;;;;;;;;;;;;5040498;28;5089;-63
2023/11/20 16:31:23;;;;;;;;;;;;;;;;;;5045959;28;5103;-62
2023/11/20 16:33:48;;;;;;;;;;;;;;;;;;5062617;28;5059;-64
2023/11/20 16:36:13;;;;;;;;;;;;;;;;;;5045820;28;4564;-63
2023/11/20 16:38:39;;;;;;;;;;;;;;;;;;5040653;28;3038;-63
2023/11/20 16:41:05;;;;;;;;;;;;;;;;;;5044907;28;5069;-64
2023/11/20 16:43:30;;;;;;;;;;;;;;;;;;5056193;28;5150;-63
2023/11/20 16:45:55;;;;;;;;;;;;;;;;;;5043114;28;4655;-64
2023/11/20 16:48:20;;;;;;;;;;;;;;;;;;5057817;28;5033;-65
2023/11/20 16:50:46;;;;;;;;;;;;;;;;;;5061912;28;3465;-65
2023/11/20 16:53:11;;;;;;;;;;;;;;;;;;5050629;28;5109;-65
2023/11/20 16:55:36;;;;;;;;;;;;;;;;;;5047244;28;5068;-64
2023/11/20 16:58:02;;;;;;;;;;;;;;;;;;5054156;28;4597;-65
2023/11/20 17:00:28;;;;;;;;;;;;;;;;;;5057617;28;4835;-63
2023/11/20 17:02:54;;;;;;;;;;;;;;;;;;5044541;28;3587;-64
2023/11/20 17:05:19;;;;;;;;;;;;;;;;;;5066324;28;5068;-62
2023/11/20 17:07:44;;;;;;;;;;;;;;;;;;5061297;28;5255;-64
2023/11/20 17:10:10;;;;;;;;;;;;;;;;;;5046427;28;5105;-65
2023/11/20 17:12:36;;;;;;;;;;;;;;;;;;5061036;28;4718;-65
2023/11/20 17:15:03;;;;;;;;;;;;;;;;;;5066859;28;2029;-65
2023/11/20 17:17:28;;;;;;;;;;;;;;;;;;5055514;28;5066;-64
2023/11/20 17:19:54;;;;;;;;;;;;;;;;;;5060367;28;4653;-65
2023/11/20 17:22:19;;;;;;;;;;;;;;;;;;5023506;28;5158;-66
2023/11/20 17:24:45;;;;;;;;;;;;;;;;;;5039804;28;5148;-62
2023/11/20 17:27:11;;;;;;;;;;;;;;;;;;5047758;28;5159;-65
2023/11/20 17:29:36;;;;;;;;;;;;;;;;;;5053848;28;4993;-66
2023/11/20 17:32:02;;;;;;;;;;;;;;;;;;5060030;28;4888;-67
2023/11/20 17:34:28;;;;;;;;;;;;;;;;;;5037420;28;5052;-68
2023/11/20 17:36:54;;;;;;;;;;;;;;;;;;5035819;28;4985;-67
2023/11/20 17:39:20;;;;;;;;;;;;;;;;;;5043190;28;5065;-64